Tropical Cyclones
[Index]
Main Index Home Page Stock Weather Photos Extreme Storms Discussion Storm News and Storm Chasing Reports Tropical Cyclones / Hurricanes / Typhoons Weather Data and Links Wild Fires / Bushfires Weather Observation Techniques Weather Picture Catalogue Tornado Pictures and Reports Stock Video Footage and DVDs for sale
Season 1997-1998 Tropical Cyclone SELWYN Track Map
Season 1997-1998 Summaries: [BoM-AU] [JTWC-AU] [JTWC-SIO] [JTWC-SPAC] [JTWC-SH]
<<- Previous TC | BoM 1997-1998 Season | Next TC ->>

click for intensity scale information  Lat/long Grid: Show Hide

 Date Labels: Show Hide

Bureau of Meteorology Tropical Cyclone Data

Name: SELWYN
Number: 809 / 199798_03

25 Dec 1997 16:00 UTC to 02 Jan 1998 22:00 UTC

    date/time    lat    long    hPa   cat  kts
1997-12-25 16   11.9   110.9   1006                     
1997-12-25 22   11.9   111.2   1004         21          
1997-12-26 04   12.0   111.8   1002         23          
1997-12-26 10   12.7   111.8   1000         27          
1997-12-26 16   13.4   111.5    995    1    35          
1997-12-26 22   14.0   111.0    990    1    41          
1997-12-27 04   14.5   110.6    985    2    49          
1997-12-27 10   15.0   110.0    975    2    60          
1997-12-27 16   15.1   109.4    965    3    70          
1997-12-27 22   15.5   109.0    960    3    76          
1997-12-28 04   15.9   108.4    960    3    76          
1997-12-28 10   16.3   108.0    960    3    76          
1997-12-28 16   16.4   107.3    965    3    70          
1997-12-28 22   17.0   106.5    965    3    70          
1997-12-29 04   17.3   105.7    970    3    64          
1997-12-29 10   17.2   104.8    970    3    64          
1997-12-29 16   17.1   104.0    975    2    60          
1997-12-29 22   17.1   103.2    980    2    54          
1997-12-30 04   17.0   102.2    985    2    49          
1997-12-30 10   16.7   101.4    990    1    41          
1997-12-30 16   16.5   100.7    995    1    35          
1997-12-30 22   16.4    99.9    998         29          
1997-12-31 04   16.4    99.1    998         29          
1997-12-31 10   16.5    98.3   1000         27          
1997-12-31 16   16.5    97.3   1000         27          
1997-12-31 22   16.6    96.3   1000         27          
1998-01-01 04   16.9    95.3    998         29          
1998-01-01 10   17.2    94.4    998         29          
1998-01-01 16   17.6    93.5   1000         27          
1998-01-01 22   18.0    92.2   1000         27          
1998-01-02 04   18.3    90.8   1000         27          
1998-01-02 10   18.8    89.6   1000         27          
1998-01-02 16   19.3    89.0   1000         27          
1998-01-02 22   19.7    88.3   1000         27          
Winds are 10-min average.

Tropical cyclone tracks developed by Michael Bath using data from the Bureau of Meteorology and Google Maps.


[Australian Severe Weather index] [Copyright Notice] [Email Contacts] [Search This Site] [Privacy Policy]
Document: tropical_cyclone_selwyn.htm Updated: 30 May 2013